createdAt,value
2023-03-14T00:00:53.076Z,0.50
2023-03-14T00:03:19.994Z,0.60
2023-03-14T00:05:46.835Z,0.70
2023-03-14T00:08:13.564Z,0.57
2023-03-14T00:10:40.284Z,0.50
2023-03-14T00:13:08.048Z,0.50
2023-03-14T00:15:35.352Z,0.60
2023-03-14T00:18:02.585Z,0.50
2023-03-14T00:20:29.163Z,0.80
2023-03-14T00:22:55.694Z,0.47
2023-03-14T00:25:22.367Z,0.52
2023-03-14T00:27:51.723Z,0.50
2023-03-14T00:30:18.515Z,0.50
2023-03-14T00:32:45.256Z,0.52
2023-03-14T00:35:11.975Z,0.57
2023-03-14T00:37:38.649Z,0.40
2023-03-14T00:40:07.762Z,0.40
2023-03-14T00:42:34.447Z,0.40
2023-03-14T00:45:01.055Z,0.40
2023-03-14T00:47:27.680Z,0.40
2023-03-14T00:49:54.261Z,0.38
2023-03-14T00:52:20.915Z,0.50
2023-03-14T00:54:47.560Z,0.35
2023-03-14T00:57:14.156Z,0.40
2023-03-14T00:59:40.698Z,0.40
2023-03-14T01:02:07.356Z,0.50
2023-03-14T01:04:34.188Z,0.40
2023-03-14T01:07:00.725Z,0.40
2023-03-14T01:09:27.326Z,0.35
2023-03-14T01:11:53.924Z,0.45
2023-03-14T01:14:20.483Z,0.40
2023-03-14T01:16:47.199Z,0.60
2023-03-14T01:19:13.974Z,0.35
2023-03-14T01:21:40.566Z,0.47
2023-03-14T01:24:07.742Z,0.30
2023-03-14T01:26:35.784Z,0.40
2023-03-14T01:29:02.791Z,0.30
2023-03-14T01:31:29.567Z,0.50
2023-03-14T01:33:56.200Z,0.50
2023-03-14T01:36:22.748Z,0.52
2023-03-14T01:38:49.400Z,0.43
2023-03-14T01:41:18.827Z,0.20
2023-03-14T01:43:46.235Z,0.35
2023-03-14T01:46:19.123Z,0.38
2023-03-14T01:48:52.874Z,0.32
2023-03-14T01:51:42.894Z,0.40
2023-03-14T01:54:21.257Z,0.40
2023-03-14T01:56:54.312Z,0.30
2023-03-14T01:59:21.396Z,0.40
2023-03-14T02:01:50.515Z,0.45
2023-03-14T02:04:19.236Z,0.60
2023-03-14T02:06:51.191Z,0.45
2023-03-14T02:09:18.010Z,0.73
2023-03-14T02:11:44.990Z,0.52
2023-03-14T02:14:22.740Z,0.52
2023-03-14T02:16:49.549Z,0.63
2023-03-14T02:19:21.845Z,0.50
2023-03-14T02:22:01.964Z,0.60
2023-03-14T02:24:39.114Z,0.70
2023-03-14T02:29:56.321Z,0.73
2023-03-14T02:32:25.107Z,0.60
2023-03-14T02:34:58.197Z,0.55
2023-03-14T02:37:30.165Z,0.60
2023-03-14T02:39:57.005Z,0.80
2023-03-14T02:42:23.502Z,1.02
2023-03-14T02:44:56.096Z,0.55
2023-03-14T02:47:28.598Z,0.70
2023-03-14T02:50:01.984Z,0.50
2023-03-14T02:52:28.770Z,0.80
2023-03-14T02:54:55.280Z,0.70
2023-03-14T02:57:22.038Z,0.50
2023-03-14T02:59:48.543Z,0.88
2023-03-14T03:02:15.104Z,0.60
2023-03-14T03:04:41.854Z,0.43
2023-03-14T03:07:08.465Z,0.60
2023-03-14T03:09:35.103Z,0.50
2023-03-14T03:12:01.769Z,0.55
2023-03-14T03:14:28.268Z,0.60
2023-03-14T03:16:54.824Z,0.40
2023-03-14T03:19:22.054Z,0.40
2023-03-14T03:21:49.366Z,0.47
2023-03-14T03:24:15.934Z,0.50
2023-03-14T03:26:42.600Z,0.50
2023-03-14T03:29:09.138Z,0.50
2023-03-14T03:31:38.384Z,0.50
2023-03-14T03:34:05.286Z,0.40
2023-03-14T03:36:32.474Z,0.60
2023-03-14T03:38:58.973Z,0.65
2023-03-14T03:41:25.815Z,0.90
2023-03-14T03:43:52.469Z,0.40
2023-03-14T03:46:19.026Z,0.30
2023-03-14T03:48:45.844Z,0.52
2023-03-14T03:51:16.774Z,0.50
2023-03-14T03:56:10.941Z,0.45
2023-03-14T03:58:39.865Z,0.60
2023-03-14T04:01:10.303Z,0.50
2023-03-14T04:03:40.013Z,0.28
2023-03-14T04:06:09.542Z,0.35
2023-03-14T04:08:36.303Z,0.32
2023-03-14T04:11:04.443Z,0.50
2023-03-14T04:13:31.038Z,0.45
2023-03-14T04:15:57.844Z,0.52
2023-03-14T04:18:27.925Z,0.57
2023-03-14T04:20:58.692Z,0.45
2023-03-14T04:23:26.004Z,0.40
2023-03-14T04:25:53.305Z,0.57
2023-03-14T04:28:20.224Z,0.80
2023-03-14T04:30:46.856Z,0.60
2023-03-14T04:33:18.389Z,0.52
2023-03-14T04:35:46.201Z,0.40
2023-03-14T04:38:13.826Z,0.50
2023-03-14T04:40:41.895Z,0.60
2023-03-14T04:43:11.127Z,0.40
2023-03-14T04:45:38.568Z,0.80
2023-03-14T04:48:05.478Z,0.50
2023-03-14T04:50:31.979Z,0.88
2023-03-14T04:52:58.504Z,0.45
2023-03-14T04:55:25.428Z,0.63
2023-03-14T04:57:51.961Z,0.50
2023-03-14T05:00:19.432Z,0.45
2023-03-14T05:02:46.922Z,0.60
2023-03-14T05:05:13.430Z,0.60
2023-03-14T05:07:39.948Z,0.50
2023-03-14T05:10:06.828Z,0.73
2023-03-14T05:12:33.373Z,0.50
2023-03-14T05:14:59.876Z,0.60
2023-03-14T05:17:26.534Z,0.77
2023-03-14T05:19:53.085Z,0.60
2023-03-14T05:22:19.632Z,0.50
2023-03-14T05:24:46.543Z,0.52
2023-03-14T05:27:13.060Z,0.50
2023-03-14T05:29:39.578Z,0.57
2023-03-14T05:32:06.534Z,0.55
2023-03-14T05:34:33.288Z,0.57
2023-03-14T05:37:00.001Z,0.52
2023-03-14T05:39:26.783Z,0.60
2023-03-14T05:41:54.977Z,0.30
2023-03-14T05:44:21.605Z,0.57
2023-03-14T05:46:48.344Z,0.50
2023-03-14T05:49:14.904Z,0.50
2023-03-14T05:51:41.436Z,0.50
2023-03-14T05:54:08.238Z,0.50
2023-03-14T05:56:34.752Z,1.08
2023-03-14T05:59:03.258Z,0.60
2023-03-14T06:01:30.967Z,0.60
2023-03-14T06:03:57.547Z,0.57
2023-03-14T06:06:24.108Z,0.68
2023-03-14T06:08:51.131Z,0.77
2023-03-14T06:11:17.691Z,0.70
2023-03-14T06:13:44.296Z,1.00
2023-03-14T06:16:11.215Z,0.82
2023-03-14T06:18:37.878Z,0.70
2023-03-14T06:21:04.568Z,0.68
2023-03-14T06:23:33.014Z,0.50
2023-03-14T06:25:59.630Z,0.93
2023-03-14T06:28:26.386Z,0.50
2023-03-14T06:30:53.297Z,0.60
2023-03-14T06:33:19.918Z,0.70
2023-03-14T06:35:46.577Z,0.73
2023-03-14T06:38:13.325Z,0.60
2023-03-14T06:40:39.981Z,0.70
2023-03-14T06:43:06.963Z,1.00
2023-03-14T06:45:33.688Z,0.80
2023-03-14T06:48:00.430Z,1.00
2023-03-14T06:50:27.015Z,0.70
2023-03-14T06:52:53.623Z,0.90
2023-03-14T06:55:22.500Z,0.90
2023-03-14T06:57:49.224Z,0.68
2023-03-14T07:00:16.233Z,0.70
2023-03-14T07:02:43.599Z,0.55
2023-03-14T07:05:13.536Z,0.80
2023-03-14T07:07:40.191Z,0.70
2023-03-14T07:10:08.259Z,0.60
2023-03-14T07:12:34.759Z,0.40
2023-03-14T07:15:15.668Z,0.40
2023-03-14T07:17:45.081Z,0.60
2023-03-14T07:20:11.928Z,0.68
2023-03-14T07:22:38.523Z,0.40
2023-03-14T07:25:05.553Z,0.68
2023-03-14T07:27:32.267Z,0.52
2023-03-14T07:29:58.773Z,0.50
2023-03-14T07:32:25.472Z,0.60
2023-03-14T07:34:52.044Z,1.13
2023-03-14T07:37:18.552Z,0.90
2023-03-14T07:39:45.139Z,1.17
2023-03-14T07:42:12.301Z,1.00
2023-03-14T07:44:38.919Z,0.73
2023-03-14T07:47:05.704Z,0.82
2023-03-14T07:49:32.748Z,0.60
2023-03-14T07:52:00.102Z,0.70
2023-03-14T07:54:26.680Z,1.00
2023-03-14T07:56:53.499Z,0.60
2023-03-14T07:59:20.217Z,0.47
2023-03-14T08:01:46.937Z,0.55
2023-03-14T08:04:13.580Z,0.73
2023-03-14T08:06:40.184Z,0.35
2023-03-14T08:09:06.772Z,0.47
2023-03-14T08:11:33.411Z,0.50
2023-03-14T08:13:59.923Z,0.43
2023-03-14T08:16:26.619Z,0.22
2023-03-14T08:18:53.273Z,0.40
2023-03-14T08:21:19.828Z,0.38
2023-03-14T08:23:46.478Z,0.30
2023-03-14T08:26:13.154Z,0.20
2023-03-14T08:28:39.658Z,0.22
2023-03-14T08:31:06.402Z,0.20
2023-03-14T08:33:33.142Z,0.40
2023-03-14T08:36:01.489Z,0.20
2023-03-14T08:38:28.769Z,0.43
2023-03-14T08:41:00.507Z,0.40
2023-03-14T08:43:28.379Z,0.40
2023-03-14T08:45:58.062Z,0.40
2023-03-14T08:48:24.648Z,0.40
2023-03-14T08:50:51.124Z,0.32
2023-03-14T08:53:17.956Z,0.45
2023-03-14T08:55:44.556Z,0.40
2023-03-14T08:58:11.071Z,0.40
2023-03-14T09:00:37.709Z,0.50
2023-03-14T09:03:04.324Z,0.70
2023-03-14T09:05:34.359Z,0.90
2023-03-14T09:08:01.633Z,0.60
2023-03-14T09:10:28.316Z,0.65
2023-03-14T09:12:54.819Z,0.60
2023-03-14T09:15:21.454Z,1.05
2023-03-14T09:17:48.174Z,0.85
2023-03-14T09:20:15.477Z,0.50
2023-03-14T09:22:42.177Z,0.70
2023-03-14T09:25:09.530Z,0.70
2023-03-14T09:27:36.075Z,0.77
2023-03-14T09:30:03.403Z,0.32
2023-03-14T09:32:32.736Z,0.30
2023-03-14T09:34:59.466Z,0.30
2023-03-14T09:37:26.145Z,0.30
2023-03-14T09:39:52.820Z,0.30
2023-03-14T09:42:23.692Z,0.30
2023-03-14T09:45:00.891Z,0.30
2023-03-14T09:47:28.197Z,0.32
2023-03-14T09:49:54.761Z,0.20
2023-03-14T09:52:42.825Z,0.40
2023-03-14T09:55:22.449Z,0.45
2023-03-14T09:57:51.862Z,0.30
2023-03-14T10:00:22.753Z,0.40
2023-03-14T10:02:58.109Z,0.50
2023-03-14T10:05:26.745Z,0.32
2023-03-14T10:07:53.220Z,0.20
2023-03-14T10:10:22.226Z,0.40
2023-03-14T10:12:57.267Z,0.40
2023-03-14T10:15:30.546Z,0.50
2023-03-14T10:18:00.485Z,0.60
2023-03-14T10:20:43.547Z,0.50
2023-03-14T10:23:12.817Z,0.73
2023-03-14T10:25:44.502Z,0.70
2023-03-14T10:28:29.105Z,1.00
2023-03-14T10:30:57.201Z,0.88
2023-03-14T10:33:32.830Z,0.60
2023-03-14T10:36:04.099Z,0.70
2023-03-14T10:38:36.563Z,0.73
2023-03-14T10:41:15.652Z,0.65
2023-03-14T10:43:42.678Z,0.95
2023-03-14T10:46:20.315Z,0.63
2023-03-14T10:48:47.467Z,0.90
2023-03-14T10:51:31.169Z,0.80
2023-03-14T10:54:14.242Z,0.73
2023-03-14T10:56:43.227Z,0.98
2023-03-14T10:59:16.629Z,0.90
2023-03-14T11:01:59.092Z,0.90
2023-03-14T11:04:56.226Z,0.88
2023-03-14T11:07:34.746Z,1.10
2023-03-14T11:10:27.613Z,1.08
2023-03-14T11:13:18.524Z,1.00
2023-03-14T11:15:59.187Z,1.13
2023-03-14T11:18:49.041Z,1.02
2023-03-14T11:21:35.869Z,1.00
2023-03-14T11:24:21.576Z,0.75
2023-03-14T11:27:06.888Z,0.70
2023-03-14T11:29:42.137Z,0.80
2023-03-14T11:32:15.378Z,0.80
2023-03-14T11:34:53.075Z,0.50
2023-03-14T11:37:41.733Z,0.90
2023-03-14T11:40:41.493Z,0.80
2023-03-14T11:43:33.766Z,0.80
2023-03-14T11:46:06.551Z,0.82
2023-03-14T11:48:45.188Z,0.80
2023-03-14T11:51:35.647Z,0.90
2023-03-14T11:54:12.317Z,0.85
2023-03-14T11:56:42.055Z,1.10
2023-03-14T11:59:23.065Z,0.90
2023-03-14T12:02:24.592Z,1.10
2023-03-14T12:05:15.940Z,1.02
2023-03-14T12:08:07.280Z,1.10
2023-03-14T12:10:41.602Z,0.80
2023-03-14T12:13:11.895Z,1.15
2023-03-14T12:15:50.166Z,1.42
2023-03-14T12:18:29.500Z,0.85
2023-03-14T12:20:59.535Z,1.00
2023-03-14T12:23:28.250Z,0.98
2023-03-14T12:26:23.146Z,1.10
2023-03-14T12:28:51.867Z,0.93
2023-03-14T12:31:30.956Z,1.42
2023-03-14T12:34:12.956Z,1.05
2023-03-14T12:36:49.815Z,0.88
2023-03-14T12:39:47.216Z,1.35
2023-03-14T12:42:16.427Z,1.40
2023-03-14T12:44:45.675Z,0.80
2023-03-14T12:47:21.706Z,0.90
2023-03-14T12:49:51.066Z,1.00
2023-03-14T12:52:22.390Z,1.05
2023-03-14T12:54:54.916Z,0.95
2023-03-14T12:57:41.513Z,1.02
2023-03-14T13:00:22.632Z,1.33
2023-03-14T13:02:50.362Z,1.20
2023-03-14T13:05:24.339Z,1.08
2023-03-14T13:07:55.722Z,1.17
2023-03-14T13:10:37.149Z,0.90
2023-03-14T13:13:26.827Z,1.20
2023-03-14T13:16:04.624Z,0.90
2023-03-14T13:18:40.562Z,0.80
2023-03-14T13:21:20.657Z,0.73
2023-03-14T13:23:58.018Z,0.65
2023-03-14T13:28:52.062Z,0.60
2023-03-14T13:31:28.058Z,0.82
2023-03-14T13:34:03.270Z,0.90
2023-03-14T13:36:30.025Z,1.45
2023-03-14T13:39:00.915Z,1.35
2023-03-14T13:41:28.527Z,0.98
2023-03-14T13:44:04.794Z,0.80
2023-03-14T13:46:34.075Z,0.70
2023-03-14T13:49:04.266Z,1.35
2023-03-14T13:51:34.200Z,1.15
2023-03-14T13:54:01.437Z,1.00
2023-03-14T13:56:30.099Z,0.82
2023-03-14T13:58:57.400Z,0.90
2023-03-14T14:01:26.384Z,1.05
2023-03-14T14:03:55.876Z,1.30
2023-03-14T14:06:32.336Z,1.15
2023-03-14T14:09:04.010Z,1.05
2023-03-14T14:12:07.517Z,0.70
2023-03-14T14:14:42.056Z,0.68
2023-03-14T14:17:16.906Z,0.90
2023-03-14T14:19:44.898Z,0.73
2023-03-14T14:22:11.925Z,0.80
2023-03-14T14:24:39.600Z,1.00
2023-03-14T14:27:37.882Z,1.05
2023-03-14T14:30:26.538Z,1.23
2023-03-14T14:32:53.365Z,1.00
2023-03-14T14:35:38.193Z,0.93
2023-03-14T14:38:14.085Z,0.90
2023-03-14T14:40:46.987Z,1.00
2023-03-14T14:43:19.286Z,1.08
2023-03-14T14:45:48.768Z,0.77
2023-03-14T14:48:15.896Z,0.80
2023-03-14T14:50:48.633Z,1.15
2023-03-14T14:53:37.814Z,0.77
2023-03-14T14:56:25.705Z,1.10
2023-03-14T14:59:00.667Z,0.73
2023-03-14T15:01:34.110Z,0.73
2023-03-14T15:04:01.123Z,0.90
2023-03-14T15:06:30.316Z,0.80
2023-03-14T15:08:56.856Z,0.80
2023-03-14T15:11:26.330Z,0.70
2023-03-14T15:13:53.800Z,0.90
2023-03-14T15:16:28.675Z,0.80
2023-03-14T15:18:57.671Z,0.80
2023-03-14T15:21:26.016Z,0.90
2023-03-14T15:23:53.353Z,0.70
2023-03-14T15:26:22.272Z,0.73
2023-03-14T15:28:49.545Z,1.33
2023-03-14T15:31:18.824Z,0.90
2023-03-14T15:33:46.369Z,0.80
2023-03-14T15:36:28.658Z,0.80
2023-03-14T15:38:56.562Z,0.47
2023-03-14T15:41:24.072Z,0.80
2023-03-14T15:43:50.855Z,1.13
2023-03-14T15:46:22.653Z,0.73
2023-03-14T15:48:51.072Z,1.00
2023-03-14T15:51:18.086Z,1.20
2023-03-14T15:53:44.744Z,0.60
2023-03-14T15:56:15.688Z,0.80
2023-03-14T15:58:42.517Z,1.00
2023-03-14T16:01:12.460Z,0.90
2023-03-14T16:03:39.490Z,0.73
2023-03-14T16:06:06.527Z,0.90
2023-03-14T16:08:33.160Z,0.60
2023-03-14T16:11:00.421Z,0.80
2023-03-14T16:13:28.647Z,0.77
2023-03-14T16:15:56.056Z,1.02
2023-03-14T16:18:23.037Z,1.00
2023-03-14T16:20:58.313Z,0.68
2023-03-14T16:23:25.921Z,0.80
2023-03-14T16:25:53.903Z,1.00
2023-03-14T16:28:20.761Z,0.90
2023-03-14T16:30:47.822Z,0.60
2023-03-14T16:33:16.061Z,0.80
2023-03-14T16:35:53.996Z,1.00
2023-03-14T16:38:20.673Z,0.73
2023-03-14T16:40:56.536Z,0.80
2023-03-14T16:43:23.044Z,0.95
2023-03-14T16:45:50.916Z,0.95
2023-03-14T16:48:17.737Z,1.00
2023-03-14T16:50:44.274Z,0.73
2023-03-14T16:55:59.110Z,0.82
2023-03-14T16:58:26.060Z,1.05
2023-03-14T17:00:52.674Z,1.40
2023-03-14T17:03:19.732Z,0.88
2023-03-14T17:05:48.646Z,1.05
2023-03-14T17:08:16.863Z,0.90
2023-03-14T17:10:43.526Z,0.85
2023-03-14T17:13:10.615Z,1.10
2023-03-14T17:15:37.528Z,1.20
2023-03-14T17:18:04.851Z,0.98
2023-03-14T17:20:32.334Z,1.00
2023-03-14T17:22:58.910Z,1.15
2023-03-14T17:25:25.601Z,1.15
2023-03-14T17:27:52.177Z,0.82
2023-03-14T17:30:18.835Z,1.15
2023-03-14T17:32:45.494Z,0.95
2023-03-14T17:35:12.182Z,1.00
2023-03-14T17:37:38.809Z,1.05
2023-03-14T17:40:06.175Z,1.00
2023-03-14T17:42:32.975Z,1.15
2023-03-14T17:44:59.498Z,1.08
2023-03-14T17:47:26.178Z,1.13
2023-03-14T17:49:52.735Z,1.63
2023-03-14T17:52:19.436Z,1.23
2023-03-14T17:54:46.101Z,0.90
2023-03-14T17:57:12.649Z,1.30
2023-03-14T17:59:39.177Z,1.30
2023-03-14T18:02:06.809Z,1.13
2023-03-14T18:04:33.623Z,1.42
2023-03-14T18:07:00.258Z,1.35
2023-03-14T18:09:26.895Z,1.63
2023-03-14T18:12:05.163Z,1.15
2023-03-14T18:14:34.595Z,1.92
2023-03-14T18:17:01.244Z,1.45
2023-03-14T18:19:27.758Z,1.30
2023-03-14T18:21:54.362Z,1.83
2023-03-14T18:24:21.819Z,1.90
2023-03-14T18:26:48.705Z,1.35
2023-03-14T18:29:15.376Z,1.77
2023-03-14T18:31:42.696Z,1.67
2023-03-14T18:34:09.963Z,1.63
2023-03-14T18:36:36.911Z,2.00
2023-03-14T18:39:06.754Z,2.30
2023-03-14T18:41:35.009Z,2.38
2023-03-14T18:44:02.340Z,2.70
2023-03-14T18:46:29.731Z,5.03
2023-03-14T18:48:56.888Z,2.75
2023-03-14T18:51:29.172Z,3.00
2023-03-14T18:54:08.439Z,3.85
2023-03-14T18:56:36.486Z,4.55
2023-03-14T18:59:03.137Z,4.32
2023-03-14T19:01:31.524Z,4.85
2023-03-14T19:04:01.675Z,3.92
2023-03-14T19:06:31.968Z,3.90
2023-03-14T19:08:58.914Z,3.20
2023-03-14T19:11:26.866Z,3.05
2023-03-14T19:13:57.011Z,3.30
2023-03-14T19:16:24.787Z,3.20
2023-03-14T19:18:55.737Z,3.10
2023-03-14T19:23:59.766Z,3.80
2023-03-14T19:26:28.754Z,3.60
2023-03-14T19:28:55.584Z,4.47
2023-03-14T19:31:22.273Z,4.38
2023-03-14T19:33:48.976Z,4.20
2023-03-14T19:36:21.338Z,4.55
2023-03-14T19:38:48.291Z,4.18
2023-03-14T19:41:14.797Z,4.35
2023-03-14T19:43:41.424Z,4.25
2023-03-14T19:46:08.084Z,4.78
2023-03-14T19:48:34.593Z,4.97
2023-03-14T19:51:01.598Z,4.43
2023-03-14T19:53:28.723Z,4.50
2023-03-14T19:55:55.273Z,4.93
2023-03-14T19:58:23.695Z,4.80
2023-03-14T20:00:50.964Z,5.20
2023-03-14T20:03:17.542Z,5.28
2023-03-14T20:05:47.013Z,4.90
2023-03-14T20:08:13.772Z,5.10
2023-03-14T20:10:40.308Z,4.75
2023-03-14T20:13:19.017Z,4.65
2023-03-14T20:15:47.874Z,3.75
2023-03-14T20:18:14.459Z,4.38
2023-03-14T20:20:44.331Z,4.55
2023-03-14T20:23:11.043Z,4.13
2023-03-14T20:25:37.979Z,4.20
2023-03-14T20:28:05.267Z,5.20
2023-03-14T20:30:32.674Z,5.55
2023-03-14T20:32:59.519Z,7.25
2023-03-14T20:35:26.178Z,7.25
2023-03-14T20:37:54.338Z,7.03
2023-03-14T20:40:21.249Z,7.57
2023-03-14T20:42:47.784Z,6.97
2023-03-14T20:45:15.045Z,7.03
2023-03-14T20:47:41.951Z,7.43
2023-03-14T20:50:09.520Z,7.25
2023-03-14T20:52:36.378Z,7.40
2023-03-14T20:55:03.553Z,7.30
2023-03-14T20:57:30.064Z,7.22
2023-03-14T20:59:56.739Z,7.30
2023-03-14T21:02:38.708Z,7.65
2023-03-14T21:05:06.331Z,8.05
2023-03-14T21:07:34.369Z,7.60
2023-03-14T21:10:00.917Z,7.22
2023-03-14T21:12:27.542Z,7.65
2023-03-14T21:14:54.169Z,7.57
2023-03-14T21:17:21.042Z,7.88
2023-03-14T21:19:47.610Z,8.05
2023-03-14T21:22:18.453Z,7.38
2023-03-14T21:24:46.166Z,7.53
2023-03-14T21:27:12.821Z,7.30
2023-03-14T21:29:39.557Z,8.32
2023-03-14T21:32:06.202Z,7.50
2023-03-14T21:34:33.142Z,7.38
2023-03-14T21:36:59.684Z,7.00
2023-03-14T21:39:26.241Z,6.53
2023-03-14T21:41:52.932Z,6.88
2023-03-14T21:44:20.536Z,6.90
2023-03-14T21:46:48.016Z,7.20
2023-03-14T21:49:15.753Z,7.03
2023-03-14T21:51:45.851Z,7.68
2023-03-14T21:54:16.880Z,7.13
2023-03-14T21:59:11.433Z,7.10
2023-03-14T22:01:38.261Z,7.60
2023-03-14T22:04:04.939Z,7.18
2023-03-14T22:06:31.503Z,8.07
2023-03-14T22:08:58.111Z,7.72
2023-03-14T22:11:25.170Z,8.07
2023-03-14T22:13:51.836Z,8.10
2023-03-14T22:16:18.471Z,8.18
2023-03-14T22:18:45.546Z,8.63
2023-03-14T22:21:12.110Z,8.25
2023-03-14T22:23:38.792Z,7.80
2023-03-14T22:26:05.422Z,8.35
2023-03-14T22:28:31.922Z,7.70
2023-03-14T22:30:59.165Z,7.60
2023-03-14T22:33:26.533Z,7.97
2023-03-14T22:35:53.530Z,7.43
2023-03-14T22:38:20.448Z,7.38
2023-03-14T22:40:47.200Z,7.82
2023-03-14T22:43:13.900Z,7.40
2023-03-14T22:45:40.743Z,7.47
2023-03-14T22:48:07.550Z,6.93
2023-03-14T22:50:34.792Z,7.00
2023-03-14T22:53:01.548Z,7.30
2023-03-14T22:55:28.037Z,7.40
2023-03-14T22:57:55.249Z,7.20
2023-03-14T23:00:22.886Z,6.82
2023-03-14T23:02:49.529Z,6.80
2023-03-14T23:05:16.348Z,6.93
2023-03-14T23:07:42.917Z,5.80
2023-03-14T23:10:10.471Z,6.43
2023-03-14T23:12:37.053Z,6.00
2023-03-14T23:15:06.431Z,5.25
2023-03-14T23:17:33.764Z,5.18
2023-03-14T23:20:00.292Z,5.45
2023-03-14T23:22:28.051Z,4.72
2023-03-14T23:24:54.677Z,5.13
2023-03-14T23:27:21.604Z,4.75
2023-03-14T23:29:48.265Z,4.20
2023-03-14T23:32:17.700Z,4.40
2023-03-14T23:34:44.493Z,3.97
2023-03-14T23:37:15.050Z,4.30
2023-03-14T23:39:45.337Z,3.72
2023-03-14T23:42:12.476Z,3.53
2023-03-14T23:44:39.177Z,4.55
2023-03-14T23:47:05.907Z,1.60
2023-03-14T23:49:32.495Z,1.90
2023-03-14T23:51:59.149Z,2.13
2023-03-14T23:54:25.774Z,2.08
2023-03-14T23:56:52.314Z,2.30
2023-03-14T23:59:19.038Z,1.92
